EJU83VC EGGP-LEPA
Flight info
| Callsign | EJU83VC |
|---|---|
| Flight time | 2h 20m |
| Altitude | 37000 |
| Route | NANTI L8 STAFA P18 TELBA L151 KIDLI UN859 SOPIL DCT BALAN DCT EVPOK DCT NARAK DCT GAI DCT LOMRA DCT ROCAN DCT IBRAP N13 LORES |
| Aircraft | A319/M-SDE2E3FGIJ1RWXYZ/LB1 |
Departure
| Time | 2026-05-07 13:26 |
|---|---|
| Airport | Liverpool John Lennon Airport (EGGP) |
Arrival
| Time | 2026-05-07 15:47 |
|---|---|
| Airport | Palma de Mallorca Airport (LEPA) |
| Time | Latitude | Longitude | Altitude | Speed | Heading |
|---|---|---|---|---|---|
| 2026-05-07 12:58 | 53.33631 | -2.85192 | 86 ft | 0 kts | 265° |
| 2026-05-07 13:17 | 53.33632 | -2.85185 | 85 ft | 3 kts | 265° |
| 2026-05-07 13:17 | 53.33634 | -2.85141 | 87 ft | 4 kts | 265° |
| 2026-05-07 13:18 | 53.33635 | -2.85105 | 88 ft | 4 kts | 263° |
| 2026-05-07 13:18 | 53.33641 | -2.85074 | 89 ft | 4 kts | 189° |
| 2026-05-07 13:18 | 53.33665 | -2.85075 | 89 ft | 3 kts | 175° |
| 2026-05-07 13:18 | 53.33667 | -2.85075 | 89 ft | 0 kts | 175° |
| 2026-05-07 13:21 | 53.33666 | -2.85075 | 89 ft | 1 kts | 175° |
| 2026-05-07 13:21 | 53.33639 | -2.85072 | 89 ft | 8 kts | 175° |
| 2026-05-07 13:21 | 53.33561 | -2.85062 | 85 ft | 12 kts | 175° |
| 2026-05-07 13:21 | 53.33521 | -2.85161 | 85 ft | 12 kts | 264° |
| 2026-05-07 13:22 | 53.33514 | -2.85325 | 84 ft | 16 kts | 266° |
| 2026-05-07 13:22 | 53.33505 | -2.85511 | 84 ft | 16 kts | 265° |
| 2026-05-07 13:22 | 53.33496 | -2.85700 | 88 ft | 16 kts | 265° |
| 2026-05-07 13:22 | 53.33487 | -2.85892 | 84 ft | 17 kts | 265° |
| 2026-05-07 13:23 | 53.33478 | -2.86086 | 84 ft | 17 kts | 265° |
| 2026-05-07 13:23 | 53.33469 | -2.86287 | 84 ft | 17 kts | 265° |
| 2026-05-07 13:23 | 53.33459 | -2.86487 | 83 ft | 18 kts | 265° |
| 2026-05-07 13:23 | 53.33440 | -2.86677 | 75 ft | 13 kts | 238° |
| 2026-05-07 13:24 | 53.33413 | -2.86718 | 76 ft | 0 kts | 207° |
| 2026-05-07 13:25 | 53.33410 | -2.86720 | 77 ft | 2 kts | 207° |
| 2026-05-07 13:25 | 53.33373 | -2.86731 | 77 ft | 10 kts | 181° |
| 2026-05-07 13:25 | 53.33306 | -2.86676 | 75 ft | 7 kts | 161° |
| 2026-05-07 13:25 | 53.33288 | -2.86621 | 73 ft | 7 kts | 85° |
| 2026-05-07 13:26 | 53.33298 | -2.86398 | 73 ft | 51 kts | 85° |
| 2026-05-07 13:26 | 53.33344 | -2.85396 | 81 ft | 120 kts | 86° |
| 2026-05-07 13:26 | 53.33418 | -2.83785 | 388 ft | 143 kts | 92° |
| 2026-05-07 13:26 | 53.33507 | -2.82141 | 1057 ft | 142 kts | 91° |
| 2026-05-07 13:27 | 53.33593 | -2.80485 | 1633 ft | 148 kts | 93° |
| 2026-05-07 13:27 | 53.33384 | -2.78716 | 1889 ft | 166 kts | 128° |
| 2026-05-07 13:27 | 53.32500 | -2.77390 | 2286 ft | 180 kts | 151° |
| 2026-05-07 13:27 | 53.31380 | -2.76223 | 2650 ft | 205 kts | 150° |
| 2026-05-07 13:28 | 53.30104 | -2.74859 | 3146 ft | 230 kts | 150° |
| 2026-05-07 13:28 | 53.28704 | -2.73353 | 3853 ft | 246 kts | 150° |
| 2026-05-07 13:28 | 53.27254 | -2.71782 | 4837 ft | 251 kts | 150° |
| 2026-05-07 13:28 | 53.25776 | -2.70180 | 5825 ft | 255 kts | 150° |
| 2026-05-07 13:29 | 53.24275 | -2.68555 | 6760 ft | 260 kts | 150° |
| 2026-05-07 13:29 | 53.22742 | -2.66899 | 7651 ft | 265 kts | 150° |
| 2026-05-07 13:29 | 53.21180 | -2.65214 | 8547 ft | 269 kts | 150° |
| 2026-05-07 13:29 | 53.19597 | -2.63512 | 9495 ft | 272 kts | 150° |
| 2026-05-07 13:30 | 53.17994 | -2.61784 | 10293 ft | 281 kts | 149° |
| 2026-05-07 13:30 | 53.16313 | -2.59873 | 10607 ft | 304 kts | 147° |
| 2026-05-07 13:30 | 53.14551 | -2.57786 | 11219 ft | 315 kts | 147° |
| 2026-05-07 13:30 | 53.12763 | -2.55631 | 12005 ft | 319 kts | 146° |
| 2026-05-07 13:31 | 53.10955 | -2.53448 | 12769 ft | 324 kts | 146° |
| 2026-05-07 13:31 | 53.09111 | -2.51240 | 13543 ft | 328 kts | 146° |
| 2026-05-07 13:31 | 53.07241 | -2.49016 | 14255 ft | 333 kts | 146° |
| 2026-05-07 13:31 | 53.05343 | -2.46773 | 14944 ft | 337 kts | 147° |
| 2026-05-07 13:32 | 53.03417 | -2.44509 | 15625 ft | 341 kts | 147° |
| 2026-05-07 13:32 | 53.01469 | -2.42223 | 16275 ft | 345 kts | 147° |
| 2026-05-07 13:32 | 52.99496 | -2.39912 | 16928 ft | 350 kts | 147° |
| 2026-05-07 13:32 | 52.97496 | -2.37569 | 17578 ft | 354 kts | 147° |
| 2026-05-07 13:33 | 52.95471 | -2.35197 | 18236 ft | 358 kts | 147° |
| 2026-05-07 13:33 | 52.93424 | -2.32806 | 18817 ft | 362 kts | 147° |
| 2026-05-07 13:33 | 52.91355 | -2.30395 | 19409 ft | 365 kts | 147° |
| 2026-05-07 13:33 | 52.89224 | -2.28096 | 20006 ft | 366 kts | 154° |
| 2026-05-07 13:34 | 52.86862 | -2.26515 | 20577 ft | 367 kts | 166° |
| 2026-05-07 13:34 | 52.81786 | -2.26014 | 21753 ft | 370 kts | 190° |
| 2026-05-07 13:34 | 52.79261 | -2.26940 | 22328 ft | 373 kts | 194° |
| 2026-05-07 13:35 | 52.76723 | -2.27929 | 22906 ft | 376 kts | 193° |
| 2026-05-07 13:35 | 52.74163 | -2.28916 | 23466 ft | 380 kts | 193° |
| 2026-05-07 13:35 | 52.71578 | -2.29885 | 23922 ft | 383 kts | 191° |
| 2026-05-07 13:35 | 52.68915 | -2.30287 | 24378 ft | 386 kts | 179° |
| 2026-05-07 13:36 | 52.66238 | -2.29793 | 24837 ft | 389 kts | 168° |
| 2026-05-07 13:36 | 52.63655 | -2.28402 | 25293 ft | 392 kts | 156° |
| 2026-05-07 13:36 | 52.61274 | -2.26182 | 25743 ft | 396 kts | 147° |
| 2026-05-07 13:36 | 52.58982 | -2.23658 | 26198 ft | 398 kts | 147° |
| 2026-05-07 13:37 | 52.56671 | -2.21127 | 26650 ft | 400 kts | 147° |
| 2026-05-07 13:37 | 52.54381 | -2.18630 | 27091 ft | 402 kts | 147° |
| 2026-05-07 13:37 | 52.52046 | -2.16092 | 27535 ft | 404 kts | 147° |
| 2026-05-07 13:37 | 52.49700 | -2.13544 | 27975 ft | 406 kts | 147° |
| 2026-05-07 13:38 | 52.47335 | -2.10978 | 28383 ft | 409 kts | 147° |
| 2026-05-07 13:38 | 52.44955 | -2.08403 | 28794 ft | 411 kts | 147° |
| 2026-05-07 13:38 | 52.42557 | -2.05811 | 29211 ft | 414 kts | 147° |
| 2026-05-07 13:38 | 52.40153 | -2.03209 | 29630 ft | 416 kts | 146° |
| 2026-05-07 13:39 | 52.37734 | -2.00589 | 30042 ft | 418 kts | 146° |
| 2026-05-07 13:39 | 52.35306 | -1.97958 | 30378 ft | 420 kts | 146° |
| 2026-05-07 13:39 | 52.32864 | -1.95316 | 30714 ft | 422 kts | 146° |
| 2026-05-07 13:39 | 52.30411 | -1.92667 | 31042 ft | 424 kts | 146° |
| 2026-05-07 13:40 | 52.27943 | -1.90011 | 31349 ft | 426 kts | 146° |
| 2026-05-07 13:40 | 52.25460 | -1.87345 | 31656 ft | 428 kts | 147° |
| 2026-05-07 13:40 | 52.22969 | -1.84677 | 32007 ft | 429 kts | 147° |
| 2026-05-07 13:40 | 52.20472 | -1.82004 | 32404 ft | 429 kts | 147° |
| 2026-05-07 13:41 | 52.17980 | -1.79339 | 32832 ft | 429 kts | 147° |
| 2026-05-07 13:41 | 52.15486 | -1.76676 | 33256 ft | 428 kts | 147° |
| 2026-05-07 13:41 | 52.13001 | -1.74027 | 33687 ft | 427 kts | 147° |
| 2026-05-07 13:41 | 52.10515 | -1.71382 | 34101 ft | 426 kts | 147° |
| 2026-05-07 13:42 | 52.08034 | -1.68743 | 34444 ft | 426 kts | 147° |
| 2026-05-07 13:42 | 52.05550 | -1.66099 | 34757 ft | 427 kts | 147° |
| 2026-05-07 13:42 | 52.03069 | -1.63456 | 35044 ft | 427 kts | 148° |
| 2026-05-07 13:42 | 52.00577 | -1.60803 | 35265 ft | 429 kts | 148° |
| 2026-05-07 13:43 | 51.98077 | -1.58151 | 35521 ft | 430 kts | 148° |
| 2026-05-07 13:43 | 51.95571 | -1.55504 | 35792 ft | 430 kts | 148° |
| 2026-05-07 13:43 | 51.93063 | -1.52860 | 36058 ft | 431 kts | 148° |
| 2026-05-07 13:43 | 51.90548 | -1.50215 | 36318 ft | 431 kts | 148° |
| 2026-05-07 13:44 | 51.88032 | -1.47572 | 36569 ft | 431 kts | 148° |
| 2026-05-07 13:44 | 51.85515 | -1.44930 | 36810 ft | 432 kts | 148° |
| 2026-05-07 13:44 | 51.82995 | -1.42285 | 37005 ft | 433 kts | 148° |
| 2026-05-07 13:45 | 51.77934 | -1.37090 | 37056 ft | 429 kts | 154° |
| 2026-05-07 13:45 | 51.72422 | -1.33715 | 37056 ft | 427 kts | 164° |
| 2026-05-07 13:46 | 51.66751 | -1.30844 | 37054 ft | 427 kts | 164° |
| 2026-05-07 13:46 | 51.61084 | -1.27989 | 37055 ft | 427 kts | 164° |
| 2026-05-07 13:47 | 51.55412 | -1.25134 | 37053 ft | 427 kts | 164° |
| 2026-05-07 13:47 | 51.49743 | -1.22272 | 37053 ft | 428 kts | 162° |
| 2026-05-07 13:48 | 51.44306 | -1.18377 | 37053 ft | 429 kts | 157° |
| 2026-05-07 13:48 | 51.38880 | -1.14376 | 37054 ft | 429 kts | 157° |
| 2026-05-07 13:49 | 51.33450 | -1.10399 | 37057 ft | 429 kts | 157° |
| 2026-05-07 13:49 | 51.28017 | -1.06433 | 37055 ft | 429 kts | 157° |
| 2026-05-07 13:50 | 51.22588 | -1.02472 | 37057 ft | 430 kts | 157° |
| 2026-05-07 13:50 | 51.17147 | -0.98514 | 37059 ft | 430 kts | 157° |
| 2026-05-07 13:51 | 51.11707 | -0.94560 | 37055 ft | 430 kts | 157° |
| 2026-05-07 13:51 | 51.06266 | -0.90613 | 37058 ft | 430 kts | 158° |
| 2026-05-07 13:52 | 51.00821 | -0.86674 | 37058 ft | 430 kts | 158° |
| 2026-05-07 13:52 | 50.95370 | -0.82750 | 37061 ft | 430 kts | 158° |
| 2026-05-07 13:53 | 50.89920 | -0.78835 | 37066 ft | 430 kts | 158° |
| 2026-05-07 13:53 | 50.84573 | -0.74731 | 37070 ft | 432 kts | 149° |
| 2026-05-07 13:54 | 50.79523 | -0.69551 | 37068 ft | 433 kts | 149° |
| 2026-05-07 13:54 | 50.74464 | -0.64407 | 37074 ft | 433 kts | 149° |
| 2026-05-07 13:55 | 50.69396 | -0.59274 | 37074 ft | 433 kts | 149° |
| 2026-05-07 13:55 | 50.64371 | -0.54199 | 37068 ft | 433 kts | 150° |
| 2026-05-07 13:56 | 50.59301 | -0.49079 | 37073 ft | 433 kts | 150° |
| 2026-05-07 13:56 | 50.54227 | -0.43965 | 37077 ft | 433 kts | 150° |
| 2026-05-07 13:57 | 50.49154 | -0.38860 | 37072 ft | 433 kts | 150° |
| 2026-05-07 13:57 | 50.44075 | -0.33777 | 37085 ft | 433 kts | 150° |
| 2026-05-07 13:58 | 50.38990 | -0.28695 | 37078 ft | 433 kts | 150° |
| 2026-05-07 13:58 | 50.33899 | -0.23637 | 37083 ft | 433 kts | 150° |
| 2026-05-07 13:59 | 50.28809 | -0.18590 | 37085 ft | 433 kts | 150° |
| 2026-05-07 13:59 | 50.23723 | -0.13546 | 37082 ft | 433 kts | 150° |
| 2026-05-07 14:00 | 50.18641 | -0.08511 | 37077 ft | 433 kts | 150° |
| 2026-05-07 14:00 | 50.13556 | -0.03499 | 37078 ft | 432 kts | 150° |
| 2026-05-07 14:01 | 50.08221 | 0.00651 | 37071 ft | 427 kts | 166° |
| 2026-05-07 14:01 | 50.03413 | 0.02574 | 37071 ft | 426 kts | 168° |
| 2026-05-07 14:02 | 49.97671 | 0.04846 | 37074 ft | 426 kts | 168° |
| 2026-05-07 14:02 | 49.91964 | 0.07108 | 37059 ft | 426 kts | 168° |
| 2026-05-07 14:03 | 49.86216 | 0.09364 | 37060 ft | 426 kts | 168° |
| 2026-05-07 14:03 | 49.80461 | 0.11605 | 37059 ft | 426 kts | 168° |
| 2026-05-07 14:04 | 49.74706 | 0.13845 | 37055 ft | 427 kts | 168° |
| 2026-05-07 14:04 | 49.68949 | 0.16091 | 37050 ft | 427 kts | 168° |
| 2026-05-07 14:05 | 49.63196 | 0.18377 | 37055 ft | 427 kts | 167° |
| 2026-05-07 14:05 | 49.57447 | 0.20718 | 37056 ft | 427 kts | 167° |
| 2026-05-07 14:06 | 49.51694 | 0.23045 | 37050 ft | 427 kts | 167° |
| 2026-05-07 14:06 | 49.45937 | 0.25341 | 37054 ft | 427 kts | 168° |
| 2026-05-07 14:07 | 49.40176 | 0.27629 | 37058 ft | 428 kts | 168° |
| 2026-05-07 14:07 | 49.34417 | 0.29929 | 37058 ft | 428 kts | 168° |
| 2026-05-07 14:08 | 49.28659 | 0.32242 | 37048 ft | 428 kts | 167° |
| 2026-05-07 14:08 | 49.22916 | 0.34666 | 37048 ft | 428 kts | 167° |
| 2026-05-07 14:09 | 49.17185 | 0.37129 | 37036 ft | 428 kts | 167° |
| 2026-05-07 14:09 | 49.11445 | 0.39563 | 37042 ft | 428 kts | 167° |
| 2026-05-07 14:10 | 49.05701 | 0.41958 | 37025 ft | 428 kts | 167° |
| 2026-05-07 14:10 | 48.99953 | 0.44343 | 37023 ft | 428 kts | 167° |
| 2026-05-07 14:11 | 48.94205 | 0.46735 | 37025 ft | 428 kts | 167° |
| 2026-05-07 14:11 | 48.88460 | 0.49127 | 37027 ft | 428 kts | 167° |
| 2026-05-07 14:12 | 48.82714 | 0.51519 | 37028 ft | 428 kts | 167° |
| 2026-05-07 14:12 | 48.76965 | 0.53884 | 37030 ft | 428 kts | 167° |
| 2026-05-07 14:13 | 48.71201 | 0.56145 | 37033 ft | 428 kts | 168° |
| 2026-05-07 14:13 | 48.65435 | 0.58368 | 37037 ft | 428 kts | 168° |
| 2026-05-07 14:14 | 48.59671 | 0.60614 | 37023 ft | 428 kts | 168° |
| 2026-05-07 14:14 | 48.53902 | 0.62865 | 37027 ft | 428 kts | 168° |
| 2026-05-07 14:15 | 48.48134 | 0.65144 | 37030 ft | 428 kts | 167° |
| 2026-05-07 14:15 | 48.42379 | 0.67496 | 37028 ft | 429 kts | 167° |
| 2026-05-07 14:16 | 48.36627 | 0.69862 | 37030 ft | 429 kts | 167° |
| 2026-05-07 14:16 | 48.30864 | 0.72202 | 37034 ft | 429 kts | 167° |
| 2026-05-07 14:17 | 48.25101 | 0.74517 | 37035 ft | 429 kts | 167° |
| 2026-05-07 14:17 | 48.19368 | 0.76799 | 37030 ft | 429 kts | 168° |
| 2026-05-07 14:18 | 48.13595 | 0.79059 | 37038 ft | 429 kts | 168° |
| 2026-05-07 14:18 | 48.07823 | 0.81313 | 37042 ft | 429 kts | 168° |
| 2026-05-07 14:19 | 48.02053 | 0.83570 | 37041 ft | 429 kts | 168° |
| 2026-05-07 14:19 | 47.96286 | 0.85825 | 37029 ft | 428 kts | 168° |
| 2026-05-07 14:20 | 47.90522 | 0.88070 | 37034 ft | 428 kts | 168° |
| 2026-05-07 14:20 | 47.84762 | 0.90313 | 37028 ft | 428 kts | 168° |
| 2026-05-07 14:21 | 47.79003 | 0.92556 | 37009 ft | 428 kts | 168° |
| 2026-05-07 14:21 | 47.73246 | 0.94779 | 37017 ft | 427 kts | 168° |
| 2026-05-07 14:22 | 47.67491 | 0.97000 | 37022 ft | 427 kts | 168° |
| 2026-05-07 14:22 | 47.61733 | 0.99220 | 37028 ft | 428 kts | 168° |
| 2026-05-07 14:23 | 47.55971 | 1.01431 | 37030 ft | 428 kts | 168° |
| 2026-05-07 14:23 | 47.50215 | 1.03637 | 37032 ft | 427 kts | 169° |
| 2026-05-07 14:24 | 47.44459 | 1.05809 | 37021 ft | 426 kts | 172° |
| 2026-05-07 14:24 | 47.38614 | 1.06356 | 37029 ft | 420 kts | 184° |
| 2026-05-07 14:25 | 47.32770 | 1.06202 | 37017 ft | 420 kts | 184° |
| 2026-05-07 14:25 | 47.26921 | 1.06060 | 37017 ft | 420 kts | 184° |
| 2026-05-07 14:26 | 47.21075 | 1.05926 | 37018 ft | 420 kts | 184° |
| 2026-05-07 14:26 | 47.15228 | 1.05783 | 37009 ft | 420 kts | 184° |
| 2026-05-07 14:27 | 47.09383 | 1.05649 | 37017 ft | 420 kts | 184° |
| 2026-05-07 14:27 | 47.03573 | 1.05519 | 37019 ft | 420 kts | 184° |
| 2026-05-07 14:28 | 46.97735 | 1.05340 | 37015 ft | 419 kts | 185° |
| 2026-05-07 14:28 | 46.91912 | 1.05075 | 37012 ft | 419 kts | 185° |
| 2026-05-07 14:29 | 46.86093 | 1.04792 | 37014 ft | 418 kts | 185° |
| 2026-05-07 14:29 | 46.80277 | 1.04541 | 37008 ft | 418 kts | 185° |
| 2026-05-07 14:30 | 46.74465 | 1.04300 | 37009 ft | 418 kts | 185° |
| 2026-05-07 14:30 | 46.68652 | 1.04055 | 37009 ft | 418 kts | 185° |
| 2026-05-07 14:31 | 46.62840 | 1.03817 | 37006 ft | 418 kts | 185° |
| 2026-05-07 14:31 | 46.57031 | 1.03571 | 37005 ft | 418 kts | 185° |
| 2026-05-07 14:32 | 46.51217 | 1.03601 | 36995 ft | 421 kts | 176° |
| 2026-05-07 14:32 | 46.45463 | 1.05373 | 36993 ft | 423 kts | 171° |
| 2026-05-07 14:33 | 46.39720 | 1.07300 | 36990 ft | 423 kts | 171° |
| 2026-05-07 14:33 | 46.33986 | 1.09221 | 36987 ft | 423 kts | 171° |
| 2026-05-07 14:34 | 46.28246 | 1.11136 | 36988 ft | 423 kts | 171° |
| 2026-05-07 14:34 | 46.22509 | 1.13042 | 37003 ft | 424 kts | 171° |
| 2026-05-07 14:35 | 46.16772 | 1.14942 | 36997 ft | 423 kts | 171° |
| 2026-05-07 14:35 | 46.11039 | 1.16832 | 36992 ft | 422 kts | 171° |
| 2026-05-07 14:36 | 46.05310 | 1.18722 | 37000 ft | 422 kts | 171° |
| 2026-05-07 14:36 | 45.99584 | 1.20614 | 36994 ft | 422 kts | 171° |
| 2026-05-07 14:37 | 45.93893 | 1.22493 | 36990 ft | 422 kts | 171° |
| 2026-05-07 14:37 | 45.85306 | 1.25301 | 37000 ft | 422 kts | 171° |
| 2026-05-07 14:38 | 45.79581 | 1.27168 | 37002 ft | 422 kts | 171° |
| 2026-05-07 14:38 | 45.73862 | 1.29039 | 37002 ft | 422 kts | 171° |
| 2026-05-07 14:39 | 45.68138 | 1.30902 | 36998 ft | 421 kts | 171° |
| 2026-05-07 14:39 | 45.62424 | 1.32770 | 37000 ft | 421 kts | 171° |
| 2026-05-07 14:40 | 45.56711 | 1.34630 | 36993 ft | 421 kts | 171° |
| 2026-05-07 14:40 | 45.50995 | 1.36470 | 37003 ft | 420 kts | 171° |
| 2026-05-07 14:41 | 45.45291 | 1.38302 | 37008 ft | 420 kts | 171° |
| 2026-05-07 14:41 | 45.39591 | 1.40146 | 37008 ft | 420 kts | 171° |
| 2026-05-07 14:42 | 45.33891 | 1.41983 | 37004 ft | 420 kts | 171° |
| 2026-05-07 14:42 | 45.28231 | 1.43798 | 37008 ft | 420 kts | 171° |
| 2026-05-07 14:43 | 45.22539 | 1.45620 | 37008 ft | 419 kts | 171° |
| 2026-05-07 14:43 | 45.16849 | 1.47434 | 37004 ft | 419 kts | 171° |
| 2026-05-07 14:44 | 45.11162 | 1.49247 | 37012 ft | 419 kts | 171° |
| 2026-05-07 14:44 | 45.05480 | 1.51055 | 37013 ft | 418 kts | 171° |
| 2026-05-07 14:45 | 44.99801 | 1.52857 | 36991 ft | 418 kts | 171° |
| 2026-05-07 14:45 | 44.94125 | 1.54657 | 36988 ft | 418 kts | 171° |
| 2026-05-07 14:46 | 44.88450 | 1.56453 | 36993 ft | 418 kts | 171° |
| 2026-05-07 14:46 | 44.82776 | 1.58250 | 36993 ft | 418 kts | 171° |
| 2026-05-07 14:47 | 44.77101 | 1.60042 | 36996 ft | 418 kts | 171° |
| 2026-05-07 14:47 | 44.71427 | 1.61818 | 36997 ft | 418 kts | 171° |
| 2026-05-07 14:48 | 44.66716 | 1.63295 | 36996 ft | 418 kts | 171° |
| 2026-05-07 14:48 | 44.61042 | 1.65075 | 36997 ft | 418 kts | 171° |
| 2026-05-07 14:49 | 44.55371 | 1.66838 | 36991 ft | 417 kts | 171° |
| 2026-05-07 14:49 | 44.49704 | 1.68603 | 36997 ft | 417 kts | 171° |
| 2026-05-07 14:50 | 44.44035 | 1.70376 | 36995 ft | 417 kts | 171° |
| 2026-05-07 14:50 | 44.38367 | 1.72144 | 37006 ft | 418 kts | 171° |
| 2026-05-07 14:51 | 44.32707 | 1.73906 | 36993 ft | 416 kts | 171° |
| 2026-05-07 14:51 | 44.27076 | 1.75572 | 37004 ft | 416 kts | 173° |
| 2026-05-07 14:52 | 44.21334 | 1.76845 | 37008 ft | 415 kts | 175° |
| 2026-05-07 14:52 | 44.15620 | 1.77987 | 37001 ft | 414 kts | 175° |
| 2026-05-07 14:53 | 44.09926 | 1.79192 | 36988 ft | 413 kts | 174° |
| 2026-05-07 14:53 | 44.04283 | 1.80443 | 36988 ft | 413 kts | 174° |
| 2026-05-07 14:54 | 43.98606 | 1.81711 | 36986 ft | 413 kts | 174° |
| 2026-05-07 14:54 | 43.92919 | 1.82833 | 36996 ft | 411 kts | 178° |
| 2026-05-07 14:55 | 43.87220 | 1.83392 | 36997 ft | 410 kts | 180° |
| 2026-05-07 14:55 | 43.81522 | 1.83796 | 36991 ft | 410 kts | 180° |
| 2026-05-07 14:56 | 43.75825 | 1.84284 | 37002 ft | 410 kts | 180° |
| 2026-05-07 14:56 | 43.70137 | 1.84839 | 37003 ft | 410 kts | 179° |
| 2026-05-07 14:57 | 43.64452 | 1.85412 | 36998 ft | 409 kts | 179° |
| 2026-05-07 14:57 | 43.58769 | 1.85972 | 36991 ft | 409 kts | 180° |
| 2026-05-07 14:58 | 43.53096 | 1.86519 | 36994 ft | 409 kts | 180° |
| 2026-05-07 14:58 | 43.47425 | 1.87060 | 36990 ft | 408 kts | 180° |
| 2026-05-07 14:59 | 43.41759 | 1.87594 | 36993 ft | 408 kts | 180° |
| 2026-05-07 14:59 | 43.36108 | 1.88135 | 36985 ft | 407 kts | 180° |
| 2026-05-07 15:00 | 43.30466 | 1.88679 | 36985 ft | 406 kts | 180° |
| 2026-05-07 15:00 | 43.24834 | 1.89222 | 36986 ft | 406 kts | 180° |
| 2026-05-07 15:01 | 43.19201 | 1.89764 | 36981 ft | 405 kts | 180° |
| 2026-05-07 15:01 | 43.13581 | 1.90294 | 36987 ft | 405 kts | 180° |
| 2026-05-07 15:02 | 43.07969 | 1.90825 | 36990 ft | 404 kts | 180° |
| 2026-05-07 15:02 | 43.02359 | 1.91359 | 36981 ft | 404 kts | 181° |
| 2026-05-07 15:03 | 42.96802 | 1.91891 | 36989 ft | 402 kts | 181° |
| 2026-05-07 15:03 | 42.91228 | 1.92420 | 36997 ft | 401 kts | 181° |
| 2026-05-07 15:04 | 42.85670 | 1.92940 | 37000 ft | 400 kts | 181° |
| 2026-05-07 15:04 | 42.80122 | 1.93466 | 37003 ft | 399 kts | 181° |
| 2026-05-07 15:05 | 42.74589 | 1.93990 | 37001 ft | 398 kts | 181° |
| 2026-05-07 15:05 | 42.69058 | 1.94504 | 36997 ft | 398 kts | 181° |
| 2026-05-07 15:06 | 42.63581 | 1.96018 | 36989 ft | 405 kts | 171° |
| 2026-05-07 15:06 | 42.58133 | 1.97992 | 36999 ft | 406 kts | 171° |
| 2026-05-07 15:07 | 42.52686 | 1.99950 | 37001 ft | 404 kts | 171° |
| 2026-05-07 15:07 | 42.47256 | 2.01890 | 37005 ft | 403 kts | 171° |
| 2026-05-07 15:08 | 42.41841 | 2.03828 | 36998 ft | 402 kts | 172° |
| 2026-05-07 15:08 | 42.36426 | 2.05764 | 36988 ft | 402 kts | 171° |
| 2026-05-07 15:09 | 42.31024 | 2.07686 | 36991 ft | 401 kts | 172° |
| 2026-05-07 15:09 | 42.25625 | 2.09608 | 36989 ft | 401 kts | 172° |
| 2026-05-07 15:10 | 42.20247 | 2.11521 | 36986 ft | 399 kts | 172° |
| 2026-05-07 15:10 | 42.14877 | 2.13419 | 36968 ft | 399 kts | 172° |
| 2026-05-07 15:11 | 42.09501 | 2.15307 | 36964 ft | 399 kts | 172° |
| 2026-05-07 15:11 | 42.04126 | 2.17198 | 36971 ft | 400 kts | 172° |
| 2026-05-07 15:12 | 41.98746 | 2.19099 | 36972 ft | 399 kts | 172° |
| 2026-05-07 15:12 | 41.93372 | 2.20989 | 36959 ft | 399 kts | 172° |
| 2026-05-07 15:13 | 41.88001 | 2.22871 | 36972 ft | 399 kts | 172° |
| 2026-05-07 15:13 | 41.82638 | 2.24751 | 36981 ft | 399 kts | 172° |
| 2026-05-07 15:14 | 41.77269 | 2.26626 | 36984 ft | 398 kts | 172° |
| 2026-05-07 15:14 | 41.71910 | 2.28496 | 36983 ft | 398 kts | 172° |
| 2026-05-07 15:15 | 41.66563 | 2.30364 | 36978 ft | 397 kts | 172° |
| 2026-05-07 15:15 | 41.61261 | 2.32218 | 36982 ft | 396 kts | 172° |
| 2026-05-07 15:16 | 41.55930 | 2.34070 | 36983 ft | 396 kts | 172° |
| 2026-05-07 15:16 | 41.50607 | 2.35911 | 36982 ft | 395 kts | 172° |
| 2026-05-07 15:17 | 41.45256 | 2.37761 | 36991 ft | 394 kts | 172° |
| 2026-05-07 15:17 | 41.40055 | 2.39565 | 36990 ft | 394 kts | 172° |
| 2026-05-07 15:18 | 41.34819 | 2.41371 | 36988 ft | 393 kts | 172° |
| 2026-05-07 15:18 | 41.29526 | 2.43194 | 36974 ft | 393 kts | 172° |
| 2026-05-07 15:19 | 41.24237 | 2.45022 | 36976 ft | 393 kts | 172° |
| 2026-05-07 15:19 | 41.18949 | 2.46840 | 36964 ft | 392 kts | 172° |
| 2026-05-07 15:20 | 41.16312 | 2.47743 | 36510 ft | 390 kts | 172° |
| 2026-05-07 15:20 | 41.13688 | 2.48640 | 35918 ft | 389 kts | 172° |
| 2026-05-07 15:20 | 41.11073 | 2.49537 | 35385 ft | 386 kts | 172° |
| 2026-05-07 15:20 | 41.08492 | 2.50422 | 34979 ft | 380 kts | 172° |
| 2026-05-07 15:21 | 41.05950 | 2.51296 | 34587 ft | 374 kts | 173° |
| 2026-05-07 15:21 | 41.03450 | 2.52157 | 34201 ft | 369 kts | 173° |
| 2026-05-07 15:21 | 41.00986 | 2.53005 | 33800 ft | 363 kts | 173° |
| 2026-05-07 15:21 | 40.98554 | 2.53835 | 33310 ft | 359 kts | 173° |
| 2026-05-07 15:22 | 40.96146 | 2.54651 | 32788 ft | 356 kts | 173° |
| 2026-05-07 15:22 | 40.93750 | 2.55465 | 32258 ft | 354 kts | 173° |
| 2026-05-07 15:22 | 40.91369 | 2.56274 | 31736 ft | 352 kts | 173° |
| 2026-05-07 15:22 | 40.89002 | 2.57075 | 31227 ft | 351 kts | 173° |
| 2026-05-07 15:23 | 40.86643 | 2.57873 | 30725 ft | 349 kts | 172° |
| 2026-05-07 15:23 | 40.84296 | 2.58670 | 30259 ft | 347 kts | 172° |
| 2026-05-07 15:23 | 40.81963 | 2.59460 | 29758 ft | 346 kts | 172° |
| 2026-05-07 15:23 | 40.79639 | 2.60247 | 29228 ft | 344 kts | 172° |
| 2026-05-07 15:24 | 40.77322 | 2.61032 | 28706 ft | 343 kts | 172° |
| 2026-05-07 15:24 | 40.75009 | 2.61816 | 28222 ft | 342 kts | 172° |
| 2026-05-07 15:24 | 40.72705 | 2.62598 | 27736 ft | 342 kts | 172° |
| 2026-05-07 15:24 | 40.70406 | 2.63378 | 27234 ft | 341 kts | 172° |
| 2026-05-07 15:25 | 40.68144 | 2.64144 | 26751 ft | 340 kts | 172° |
| 2026-05-07 15:25 | 40.65857 | 2.64917 | 26262 ft | 339 kts | 172° |
| 2026-05-07 15:25 | 40.63573 | 2.65688 | 25773 ft | 338 kts | 172° |
| 2026-05-07 15:25 | 40.61294 | 2.66457 | 25281 ft | 338 kts | 171° |
| 2026-05-07 15:26 | 40.59017 | 2.67224 | 24777 ft | 338 kts | 171° |
| 2026-05-07 15:26 | 40.56739 | 2.67988 | 24278 ft | 338 kts | 171° |
| 2026-05-07 15:26 | 40.54463 | 2.68752 | 23795 ft | 338 kts | 171° |
| 2026-05-07 15:26 | 40.52183 | 2.69520 | 23286 ft | 338 kts | 171° |
| 2026-05-07 15:27 | 40.49933 | 2.70433 | 22777 ft | 341 kts | 163° |
| 2026-05-07 15:27 | 40.47810 | 2.71841 | 22313 ft | 342 kts | 156° |
| 2026-05-07 15:27 | 40.45736 | 2.73358 | 21880 ft | 340 kts | 156° |
| 2026-05-07 15:27 | 40.43650 | 2.74876 | 21456 ft | 337 kts | 155° |
| 2026-05-07 15:28 | 40.41613 | 2.76354 | 21090 ft | 333 kts | 155° |
| 2026-05-07 15:28 | 40.39621 | 2.77795 | 20700 ft | 330 kts | 155° |
| 2026-05-07 15:28 | 40.37617 | 2.79242 | 20303 ft | 327 kts | 155° |
| 2026-05-07 15:28 | 40.35631 | 2.80680 | 19914 ft | 325 kts | 155° |
| 2026-05-07 15:29 | 40.33627 | 2.82130 | 19534 ft | 323 kts | 155° |
| 2026-05-07 15:29 | 40.31666 | 2.83544 | 19155 ft | 321 kts | 154° |
| 2026-05-07 15:29 | 40.29717 | 2.84948 | 18804 ft | 319 kts | 154° |
| 2026-05-07 15:29 | 40.27779 | 2.86343 | 18455 ft | 317 kts | 154° |
| 2026-05-07 15:30 | 40.25818 | 2.87626 | 18088 ft | 312 kts | 163° |
| 2026-05-07 15:30 | 40.23709 | 2.88084 | 17686 ft | 306 kts | 182° |
| 2026-05-07 15:30 | 40.21638 | 2.87565 | 17271 ft | 304 kts | 201° |
| 2026-05-07 15:30 | 40.19757 | 2.86303 | 16824 ft | 305 kts | 207° |
| 2026-05-07 15:31 | 40.17906 | 2.84956 | 16431 ft | 304 kts | 208° |
| 2026-05-07 15:31 | 40.16063 | 2.83603 | 16042 ft | 303 kts | 208° |
| 2026-05-07 15:31 | 40.14227 | 2.82254 | 15657 ft | 303 kts | 208° |
| 2026-05-07 15:31 | 40.12393 | 2.80911 | 15313 ft | 301 kts | 207° |
| 2026-05-07 15:32 | 40.10568 | 2.79582 | 14970 ft | 300 kts | 207° |
| 2026-05-07 15:32 | 40.08753 | 2.78262 | 14641 ft | 298 kts | 207° |
| 2026-05-07 15:32 | 40.06941 | 2.76949 | 14281 ft | 297 kts | 208° |
| 2026-05-07 15:32 | 40.05130 | 2.75639 | 13901 ft | 298 kts | 208° |
| 2026-05-07 15:33 | 40.03318 | 2.74327 | 13527 ft | 297 kts | 208° |
| 2026-05-07 15:33 | 40.01514 | 2.73020 | 13156 ft | 296 kts | 207° |
| 2026-05-07 15:33 | 39.99749 | 2.71740 | 12825 ft | 293 kts | 207° |
| 2026-05-07 15:33 | 39.97966 | 2.70450 | 12431 ft | 293 kts | 207° |
| 2026-05-07 15:34 | 39.96184 | 2.69165 | 12054 ft | 292 kts | 206° |
| 2026-05-07 15:34 | 39.94409 | 2.67885 | 11684 ft | 291 kts | 207° |
| 2026-05-07 15:34 | 39.92644 | 2.66612 | 11331 ft | 290 kts | 207° |
| 2026-05-07 15:34 | 39.90888 | 2.65344 | 11010 ft | 286 kts | 207° |
| 2026-05-07 15:35 | 39.89713 | 2.64496 | 10756 ft | 286 kts | 208° |
| 2026-05-07 15:35 | 39.87973 | 2.63243 | 10378 ft | 285 kts | 207° |
| 2026-05-07 15:35 | 39.86235 | 2.61993 | 9984 ft | 286 kts | 207° |
| 2026-05-07 15:35 | 39.84500 | 2.60747 | 9632 ft | 283 kts | 206° |
| 2026-05-07 15:36 | 39.82779 | 2.59510 | 9221 ft | 282 kts | 206° |
| 2026-05-07 15:36 | 39.81061 | 2.58274 | 8798 ft | 282 kts | 206° |
| 2026-05-07 15:36 | 39.79348 | 2.57040 | 8370 ft | 282 kts | 207° |
| 2026-05-07 15:36 | 39.77634 | 2.55807 | 7936 ft | 281 kts | 207° |
| 2026-05-07 15:37 | 39.75921 | 2.54577 | 7484 ft | 282 kts | 207° |
| 2026-05-07 15:37 | 39.74227 | 2.53365 | 7176 ft | 277 kts | 206° |
| 2026-05-07 15:37 | 39.72573 | 2.52181 | 7053 ft | 266 kts | 206° |
| 2026-05-07 15:37 | 39.70963 | 2.51028 | 6929 ft | 256 kts | 207° |
| 2026-05-07 15:38 | 39.69451 | 2.49948 | 6808 ft | 247 kts | 206° |
| 2026-05-07 15:38 | 39.67967 | 2.48888 | 6609 ft | 242 kts | 207° |
| 2026-05-07 15:38 | 39.66475 | 2.47821 | 6144 ft | 245 kts | 207° |
| 2026-05-07 15:38 | 39.64989 | 2.46757 | 5987 ft | 246 kts | 207° |
| 2026-05-07 15:39 | 39.63488 | 2.45687 | 5995 ft | 247 kts | 207° |
| 2026-05-07 15:39 | 39.61973 | 2.44605 | 5997 ft | 249 kts | 206° |
| 2026-05-07 15:39 | 39.60459 | 2.43522 | 6008 ft | 248 kts | 207° |
| 2026-05-07 15:39 | 39.58934 | 2.42431 | 5866 ft | 246 kts | 206° |
| 2026-05-07 15:40 | 39.57436 | 2.41362 | 5524 ft | 244 kts | 206° |
| 2026-05-07 15:40 | 39.55858 | 2.40642 | 5173 ft | 239 kts | 185° |
| 2026-05-07 15:40 | 39.54254 | 2.40740 | 4825 ft | 232 kts | 162° |
| 2026-05-07 15:40 | 39.52796 | 2.41589 | 4450 ft | 229 kts | 142° |
| 2026-05-07 15:41 | 39.51514 | 2.42800 | 4117 ft | 228 kts | 141° |
| 2026-05-07 15:41 | 39.50243 | 2.43993 | 3912 ft | 221 kts | 141° |
| 2026-05-07 15:41 | 39.49014 | 2.45142 | 3780 ft | 209 kts | 141° |
| 2026-05-07 15:41 | 39.47875 | 2.46205 | 3655 ft | 200 kts | 141° |
| 2026-05-07 15:42 | 39.46817 | 2.47280 | 3570 ft | 186 kts | 131° |
| 2026-05-07 15:42 | 39.46086 | 2.48622 | 3429 ft | 178 kts | 112° |
| 2026-05-07 15:42 | 39.45747 | 2.50127 | 3354 ft | 177 kts | 96° |
| 2026-05-07 15:42 | 39.45791 | 2.51705 | 3303 ft | 177 kts | 79° |
| 2026-05-07 15:43 | 39.46222 | 2.53195 | 3163 ft | 177 kts | 61° |
| 2026-05-07 15:43 | 39.46861 | 2.54536 | 2960 ft | 173 kts | 59° |
| 2026-05-07 15:43 | 39.47485 | 2.55846 | 2742 ft | 169 kts | 59° |
| 2026-05-07 15:43 | 39.48097 | 2.57131 | 2524 ft | 167 kts | 59° |
| 2026-05-07 15:44 | 39.48698 | 2.58396 | 2302 ft | 162 kts | 60° |
| 2026-05-07 15:44 | 39.49276 | 2.59609 | 2096 ft | 155 kts | 59° |
| 2026-05-07 15:44 | 39.49837 | 2.60791 | 1888 ft | 153 kts | 59° |
| 2026-05-07 15:44 | 39.50393 | 2.61961 | 1682 ft | 152 kts | 59° |
| 2026-05-07 15:45 | 39.50945 | 2.63124 | 1478 ft | 151 kts | 58° |
| 2026-05-07 15:45 | 39.51493 | 2.64277 | 1282 ft | 147 kts | 58° |
| 2026-05-07 15:45 | 39.52009 | 2.65364 | 1087 ft | 137 kts | 59° |
| 2026-05-07 15:45 | 39.52501 | 2.66401 | 903 ft | 134 kts | 58° |
| 2026-05-07 15:46 | 39.53479 | 2.68464 | 537 ft | 135 kts | 62° |
| 2026-05-07 15:46 | 39.53967 | 2.69503 | 350 ft | 136 kts | 62° |
| 2026-05-07 15:46 | 39.54465 | 2.70533 | 174 ft | 135 kts | 61° |
| 2026-05-07 15:47 | 39.54948 | 2.71559 | 44 ft | 127 kts | 60° |
| 2026-05-07 15:47 | 39.55351 | 2.72414 | 38 ft | 90 kts | 58° |
| 2026-05-07 15:47 | 39.55590 | 2.72919 | 38 ft | 44 kts | 58° |
| 2026-05-07 15:47 | 39.55708 | 2.73194 | 38 ft | 28 kts | 76° |
| 2026-05-07 15:48 | 39.55719 | 2.73398 | 38 ft | 16 kts | 88° |
| 2026-05-07 15:48 | 39.55711 | 2.73530 | 36 ft | 11 kts | 143° |
| 2026-05-07 15:48 | 39.55678 | 2.73533 | 38 ft | 2 kts | 196° |
| 2026-05-07 15:48 | 39.55667 | 2.73522 | 36 ft | 1 kts | 223° |
| 2026-05-07 15:49 | 39.55663 | 2.73517 | 37 ft | 1 kts | 224° |
| 2026-05-07 15:49 | 39.55656 | 2.73505 | 38 ft | 2 kts | 236° |
| 2026-05-07 15:49 | 39.55642 | 2.73475 | 38 ft | 6 kts | 238° |
| 2026-05-07 15:49 | 39.55614 | 2.73416 | 38 ft | 9 kts | 238° |
| 2026-05-07 15:50 | 39.55578 | 2.73339 | 38 ft | 10 kts | 239° |
| 2026-05-07 15:50 | 39.55539 | 2.73256 | 38 ft | 11 kts | 238° |
| 2026-05-07 15:50 | 39.55495 | 2.73165 | 38 ft | 12 kts | 238° |
| 2026-05-07 15:50 | 39.55448 | 2.73067 | 38 ft | 13 kts | 240° |
| 2026-05-07 15:51 | 39.55393 | 2.72979 | 38 ft | 13 kts | 200° |
| 2026-05-07 15:51 | 39.55317 | 2.73017 | 38 ft | 11 kts | 148° |
| 2026-05-07 15:51 | 39.55250 | 2.73028 | 38 ft | 10 kts | 208° |
| 2026-05-07 15:51 | 39.55213 | 2.72961 | 37 ft | 9 kts | 239° |
| 2026-05-07 15:52 | 39.55171 | 2.72954 | 38 ft | 6 kts | 161° |
| 2026-05-07 15:52 | 39.55136 | 2.72969 | 36 ft | 4 kts | 162° |
| 2026-05-07 15:52 | 39.55126 | 2.72973 | 37 ft | 0 kts | 162° |